createdAt,value
2022-11-25T00:01:24.105Z,4.30
2022-11-25T00:03:52.335Z,4.34
2022-11-25T00:06:26.720Z,4.37
2022-11-25T00:08:59.056Z,4.41
2022-11-25T00:11:26.801Z,4.45
2022-11-25T00:13:55.509Z,4.51
2022-11-25T00:16:23.679Z,4.55
2022-11-25T00:18:52.133Z,4.61
2022-11-25T00:21:21.120Z,4.57
2022-11-25T00:23:53.196Z,4.48
2022-11-25T00:26:20.448Z,4.46
2022-11-25T00:28:48.224Z,4.50
2022-11-25T00:31:16.393Z,4.53
2022-11-25T00:33:43.633Z,4.52
2022-11-25T00:36:35.209Z,4.52
2022-11-25T00:39:05.529Z,4.58
2022-11-25T00:41:51.138Z,4.60
2022-11-25T00:44:40.723Z,4.63
2022-11-25T00:47:26.112Z,4.64
2022-11-25T00:49:54.994Z,4.66
2022-11-25T00:52:26.851Z,4.64
2022-11-25T00:54:54.275Z,4.63
2022-11-25T00:57:23.402Z,4.67
2022-11-25T00:59:50.144Z,4.69
2022-11-25T01:02:18.726Z,4.78
2022-11-25T01:04:46.298Z,4.81
2022-11-25T01:07:13.369Z,4.86
2022-11-25T01:09:40.088Z,4.81
2022-11-25T01:12:06.912Z,4.75
2022-11-25T01:14:34.509Z,4.73
2022-11-25T01:17:01.482Z,4.81
2022-11-25T01:19:28.412Z,4.94
2022-11-25T01:21:55.202Z,4.95
2022-11-25T01:24:23.918Z,4.96
2022-11-25T01:26:50.974Z,4.98
2022-11-25T01:29:19.351Z,5.01
2022-11-25T01:31:47.157Z,5.06
2022-11-25T01:34:17.537Z,5.10
2022-11-25T01:36:44.791Z,5.05
2022-11-25T01:39:27.049Z,4.89
2022-11-25T01:41:58.902Z,4.89
2022-11-25T01:44:30.961Z,4.85
2022-11-25T01:47:15.890Z,4.85
2022-11-25T01:49:58.517Z,4.85
2022-11-25T01:52:31.513Z,4.84
2022-11-25T01:55:30.868Z,4.79
2022-11-25T01:58:02.742Z,4.79
2022-11-25T02:00:29.481Z,4.88
2022-11-25T02:02:58.626Z,4.93
2022-11-25T02:05:46.193Z,4.97
2022-11-25T02:08:13.077Z,4.87
2022-11-25T02:10:39.947Z,4.78
2022-11-25T02:13:06.793Z,4.81
2022-11-25T02:15:35.160Z,4.84
2022-11-25T02:18:02.729Z,4.92
2022-11-25T02:20:29.777Z,4.95
2022-11-25T02:23:34.610Z,4.98
2022-11-25T02:26:01.881Z,4.96
2022-11-25T02:28:30.888Z,4.97
2022-11-25T02:30:58.416Z,4.87
2022-11-25T02:33:25.770Z,4.79
2022-11-25T02:35:56.064Z,4.77
2022-11-25T02:38:51.087Z,4.80
2022-11-25T02:41:28.851Z,4.93
2022-11-25T02:43:55.851Z,4.98
2022-11-25T02:46:25.326Z,4.99
2022-11-25T02:49:08.888Z,5.02
2022-11-25T02:51:37.331Z,5.05
2022-11-25T02:54:05.024Z,4.98
2022-11-25T02:56:34.281Z,4.93
2022-11-25T02:59:01.978Z,4.96
2022-11-25T03:01:31.180Z,4.95
2022-11-25T03:03:59.142Z,4.96
2022-11-25T03:06:25.852Z,5.00
2022-11-25T03:08:52.539Z,4.98
2022-11-25T03:11:19.298Z,5.02
2022-11-25T03:13:46.071Z,5.02
2022-11-25T03:16:12.854Z,5.02
2022-11-25T03:18:39.615Z,5.02
2022-11-25T03:21:07.420Z,5.03
2022-11-25T03:23:34.182Z,5.04
2022-11-25T03:26:05.662Z,5.04
2022-11-25T03:28:32.435Z,5.02
2022-11-25T03:30:59.127Z,4.99
2022-11-25T03:33:25.869Z,4.96
2022-11-25T03:35:52.653Z,5.00
2022-11-25T03:38:19.388Z,5.02
2022-11-25T03:40:47.897Z,4.98
2022-11-25T03:43:14.773Z,4.96
2022-11-25T03:45:41.660Z,4.96
2022-11-25T03:48:08.655Z,4.94
2022-11-25T03:50:35.396Z,4.89
2022-11-25T03:53:02.350Z,4.87
2022-11-25T03:55:29.386Z,4.88
2022-11-25T03:57:56.076Z,4.92
2022-11-25T04:00:22.875Z,4.91
2022-11-25T04:02:49.570Z,4.88
2022-11-25T04:05:16.412Z,4.89
2022-11-25T04:07:43.213Z,4.88
2022-11-25T04:10:10.650Z,4.78
2022-11-25T04:12:46.988Z,4.66
2022-11-25T04:15:17.588Z,4.61
2022-11-25T04:17:44.611Z,4.53
2022-11-25T04:20:13.110Z,4.52
2022-11-25T04:22:40.201Z,4.56
2022-11-25T04:25:07.832Z,4.53
2022-11-25T04:27:34.617Z,4.58
2022-11-25T04:30:01.584Z,4.64
2022-11-25T04:32:28.367Z,4.67
2022-11-25T04:34:55.183Z,4.70
2022-11-25T04:37:22.048Z,4.70
2022-11-25T04:39:48.894Z,4.66
2022-11-25T04:42:34.619Z,4.64
2022-11-25T04:45:23.092Z,4.60
2022-11-25T04:47:51.396Z,4.50
2022-11-25T04:50:21.925Z,4.46
2022-11-25T04:52:49.123Z,4.45
2022-11-25T04:55:16.195Z,4.50
2022-11-25T04:57:43.207Z,4.51
2022-11-25T05:00:11.045Z,4.53
2022-11-25T05:02:38.005Z,4.59
2022-11-25T05:05:05.987Z,4.58
2022-11-25T05:07:32.901Z,4.56
2022-11-25T05:09:59.707Z,4.56
2022-11-25T05:12:29.517Z,4.52
2022-11-25T05:14:56.732Z,4.49
2022-11-25T05:17:30.026Z,4.49
2022-11-25T05:19:56.900Z,4.42
2022-11-25T05:22:30.823Z,4.34
2022-11-25T05:24:57.992Z,4.35
2022-11-25T05:27:25.989Z,4.35
2022-11-25T05:29:55.918Z,4.40
2022-11-25T05:32:23.351Z,4.42
2022-11-25T05:34:50.229Z,4.31
2022-11-25T05:37:22.685Z,4.23
2022-11-25T05:39:50.926Z,4.24
2022-11-25T05:42:17.625Z,4.23
2022-11-25T05:44:46.542Z,4.15
2022-11-25T05:47:13.316Z,4.18
2022-11-25T05:49:40.187Z,4.27
2022-11-25T05:52:07.759Z,4.13
2022-11-25T05:54:35.008Z,4.08
2022-11-25T05:57:02.007Z,4.12
2022-11-25T05:59:28.871Z,4.14
2022-11-25T06:01:55.750Z,4.09
2022-11-25T06:04:22.501Z,4.06
2022-11-25T06:06:49.258Z,4.02
2022-11-25T06:09:15.985Z,4.02
2022-11-25T06:11:42.838Z,4.13
2022-11-25T06:14:09.788Z,4.17
2022-11-25T06:16:36.806Z,4.21
2022-11-25T06:19:06.845Z,4.22
2022-11-25T06:21:33.783Z,4.19
2022-11-25T06:24:00.980Z,4.23
2022-11-25T06:26:27.778Z,4.25
2022-11-25T06:28:56.842Z,4.24
2022-11-25T06:31:25.525Z,4.20
2022-11-25T06:33:53.184Z,4.16
2022-11-25T06:36:21.651Z,4.17
2022-11-25T06:38:54.332Z,4.22
2022-11-25T06:41:22.497Z,4.15
2022-11-25T06:43:49.739Z,4.14
2022-11-25T06:46:24.422Z,4.20
2022-11-25T06:48:52.108Z,4.27
2022-11-25T06:51:19.077Z,4.33
2022-11-25T06:53:46.108Z,4.38
2022-11-25T06:56:18.580Z,4.45
2022-11-25T06:58:46.867Z,4.49
2022-11-25T07:01:16.810Z,4.50
2022-11-25T07:03:45.250Z,4.51
2022-11-25T07:06:15.898Z,4.51
2022-11-25T07:08:43.469Z,4.50
2022-11-25T07:11:17.805Z,4.50
2022-11-25T07:13:47.753Z,4.50
2022-11-25T07:16:15.077Z,4.53
2022-11-25T07:18:42.238Z,4.52
2022-11-25T07:21:15.416Z,4.91
2022-11-25T07:23:44.799Z,4.98
2022-11-25T07:26:14.909Z,4.95
2022-11-25T07:28:42.456Z,4.82
2022-11-25T07:31:32.882Z,4.92
2022-11-25T07:34:05.571Z,4.93
2022-11-25T07:36:33.972Z,4.83
2022-11-25T07:39:04.092Z,4.89
2022-11-25T07:41:31.309Z,4.97
2022-11-25T07:44:01.216Z,4.93
2022-11-25T07:46:29.620Z,5.12
2022-11-25T07:48:59.166Z,5.11
2022-11-25T07:51:35.180Z,5.15
2022-11-25T07:54:04.738Z,5.27
2022-11-25T07:56:33.970Z,5.32
2022-11-25T07:59:01.142Z,5.32
2022-11-25T08:01:28.282Z,5.16
2022-11-25T08:03:55.594Z,5.19
2022-11-25T08:06:26.271Z,5.21
2022-11-25T08:08:55.749Z,5.28
2022-11-25T08:11:25.620Z,5.22
2022-11-25T08:13:53.095Z,5.37
2022-11-25T08:16:22.081Z,5.40
2022-11-25T08:18:49.320Z,5.25
2022-11-25T08:21:17.370Z,5.34
2022-11-25T08:23:47.455Z,5.50
2022-11-25T08:26:20.767Z,5.54
2022-11-25T08:28:48.013Z,5.50
2022-11-25T08:31:19.019Z,5.54
2022-11-25T08:33:46.178Z,5.55
2022-11-25T08:36:13.492Z,5.59
2022-11-25T08:38:41.084Z,5.67
2022-11-25T08:41:17.750Z,5.80
2022-11-25T08:43:44.973Z,5.87
2022-11-25T08:46:16.452Z,5.86
2022-11-25T08:48:44.254Z,5.86
2022-11-25T08:51:17.408Z,5.91
2022-11-25T08:53:44.661Z,6.09
2022-11-25T08:56:12.762Z,6.08
2022-11-25T08:58:39.553Z,6.09
2022-11-25T09:01:07.062Z,6.08
2022-11-25T09:03:39.692Z,6.07
2022-11-25T09:06:07.866Z,6.12
2022-11-25T09:08:35.932Z,6.20
2022-11-25T09:11:02.772Z,6.21
2022-11-25T09:13:29.688Z,6.19
2022-11-25T09:15:57.190Z,6.20
2022-11-25T09:18:29.975Z,6.27
2022-11-25T09:20:58.615Z,6.33
2022-11-25T09:23:26.702Z,6.34
2022-11-25T09:25:56.708Z,6.34
2022-11-25T09:28:25.300Z,6.31
2022-11-25T09:30:52.690Z,6.29
2022-11-25T09:33:20.524Z,6.39
2022-11-25T09:35:48.567Z,6.47
2022-11-25T09:38:15.347Z,6.52
2022-11-25T09:40:55.365Z,6.59
2022-11-25T09:43:49.917Z,6.58
2022-11-25T09:46:41.570Z,6.63
2022-11-25T09:49:14.991Z,6.62
2022-11-25T09:51:51.123Z,6.63
2022-11-25T09:54:33.767Z,6.72
2022-11-25T09:57:20.008Z,6.75
2022-11-25T10:00:07.676Z,6.81
2022-11-25T10:02:39.842Z,6.83
2022-11-25T10:05:19.988Z,6.87
2022-11-25T10:07:52.654Z,6.87
2022-11-25T10:10:25.367Z,6.91
2022-11-25T10:12:55.202Z,6.88
2022-11-25T10:15:34.332Z,6.85
2022-11-25T10:18:06.246Z,6.81
2022-11-25T10:20:40.907Z,6.82
2022-11-25T10:23:21.258Z,6.76
2022-11-25T10:26:01.162Z,6.78
2022-11-25T10:28:35.058Z,6.79
2022-11-25T10:31:37.557Z,6.70
2022-11-25T10:34:20.786Z,6.65
2022-11-25T10:37:30.496Z,6.56
2022-11-25T10:39:57.605Z,6.59
2022-11-25T10:42:27.074Z,6.65
2022-11-25T10:44:54.916Z,6.71
2022-11-25T10:48:04.432Z,6.73
2022-11-25T10:50:51.796Z,6.75
2022-11-25T10:53:27.002Z,6.75
2022-11-25T10:56:03.503Z,6.76
2022-11-25T10:58:42.388Z,6.81
2022-11-25T11:01:20.738Z,6.90
2022-11-25T11:03:54.230Z,6.96
2022-11-25T11:06:39.890Z,7.00
2022-11-25T11:09:26.895Z,7.02
2022-11-25T11:11:53.885Z,7.04
2022-11-25T11:14:21.281Z,7.03
2022-11-25T11:16:58.213Z,7.01
2022-11-25T11:19:28.328Z,7.01
2022-11-25T11:21:56.940Z,7.05
2022-11-25T11:24:42.421Z,7.00
2022-11-25T11:27:25.336Z,6.98
2022-11-25T11:30:29.708Z,7.02
2022-11-25T11:33:07.454Z,7.02
2022-11-25T11:35:42.374Z,7.05
2022-11-25T11:38:35.193Z,7.12
2022-11-25T11:41:15.391Z,7.21
2022-11-25T11:43:54.280Z,7.27
2022-11-25T11:46:48.957Z,7.29
2022-11-25T11:49:30.875Z,7.26
2022-11-25T11:52:08.668Z,7.22
2022-11-25T11:54:43.494Z,7.22
2022-11-25T11:57:24.196Z,7.22
2022-11-25T11:59:54.568Z,7.26
2022-11-25T12:02:59.331Z,7.31
2022-11-25T12:05:29.956Z,7.30
2022-11-25T12:08:20.877Z,7.28
2022-11-25T12:10:53.947Z,7.30
2022-11-25T12:13:42.733Z,7.38
2022-11-25T12:16:24.131Z,7.49
2022-11-25T12:18:57.470Z,7.54
2022-11-25T12:21:24.185Z,7.58
2022-11-25T12:24:04.187Z,7.65
2022-11-25T12:26:39.737Z,7.77
2022-11-25T12:29:12.930Z,7.88
2022-11-25T12:31:46.014Z,7.96
2022-11-25T12:34:24.226Z,8.04
2022-11-25T12:36:51.296Z,8.13
2022-11-25T12:39:28.288Z,8.24
2022-11-25T12:42:01.124Z,8.37
2022-11-25T12:44:36.285Z,8.47
2022-11-25T12:47:03.512Z,8.51
2022-11-25T12:49:35.009Z,8.56
2022-11-25T12:52:43.852Z,8.62
2022-11-25T12:55:13.622Z,8.68
2022-11-25T12:58:19.029Z,8.86
2022-11-25T13:01:14.320Z,9.13
2022-11-25T13:04:05.738Z,9.14
2022-11-25T13:06:57.403Z,9.10
2022-11-25T13:09:36.298Z,9.09
2022-11-25T13:12:22.105Z,9.03
2022-11-25T13:15:00.535Z,8.97
2022-11-25T13:17:30.640Z,8.91
2022-11-25T13:20:29.283Z,8.87
2022-11-25T13:23:05.219Z,8.90
2022-11-25T13:25:33.292Z,9.01
2022-11-25T13:28:01.919Z,9.09
2022-11-25T13:30:31.704Z,9.10
2022-11-25T13:33:18.815Z,9.05
2022-11-25T13:36:24.138Z,9.02
2022-11-25T13:38:50.897Z,9.00
2022-11-25T13:41:21.098Z,8.97
2022-11-25T13:43:56.662Z,8.96
2022-11-25T13:46:41.343Z,8.97
2022-11-25T13:49:21.476Z,8.95
2022-11-25T13:51:54.610Z,8.97
2022-11-25T13:54:26.767Z,9.06
2022-11-25T13:57:21.500Z,9.11
2022-11-25T14:00:06.870Z,9.15
2022-11-25T14:02:38.351Z,9.14
2022-11-25T14:05:11.206Z,9.11
2022-11-25T14:07:57.150Z,9.12
2022-11-25T14:10:45.815Z,9.09
2022-11-25T14:13:22.582Z,9.09
2022-11-25T14:16:20.528Z,9.07
2022-11-25T14:22:30.954Z,9.07
2022-11-25T14:25:32.258Z,9.06
2022-11-25T14:28:09.755Z,9.09
2022-11-25T14:30:50.333Z,9.10
2022-11-25T14:33:48.375Z,9.12
2022-11-25T14:36:21.020Z,9.13
2022-11-25T14:38:55.037Z,9.13
2022-11-25T14:41:59.236Z,9.15
2022-11-25T14:44:40.359Z,9.16
2022-11-25T14:47:07.326Z,9.16
2022-11-25T14:50:05.146Z,9.16
2022-11-25T14:52:37.056Z,9.15
2022-11-25T14:55:06.283Z,9.15
2022-11-25T14:57:35.972Z,9.15
2022-11-25T15:00:09.756Z,9.11
2022-11-25T15:02:41.213Z,9.09
2022-11-25T15:05:07.954Z,9.05
2022-11-25T15:07:35.256Z,9.04
2022-11-25T15:10:02.148Z,9.02
2022-11-25T15:12:32.896Z,8.99
2022-11-25T15:15:00.248Z,8.96
2022-11-25T15:17:32.704Z,8.95
2022-11-25T15:20:03.573Z,8.92
2022-11-25T15:22:33.879Z,8.90
2022-11-25T15:25:15.056Z,8.89
2022-11-25T15:27:48.050Z,8.87
2022-11-25T15:30:31.464Z,8.86
2022-11-25T15:32:58.689Z,8.85
2022-11-25T15:35:27.210Z,8.83
2022-11-25T15:37:54.337Z,8.81
2022-11-25T15:40:36.746Z,8.80
2022-11-25T15:43:06.955Z,8.80
2022-11-25T15:45:45.660Z,8.80
2022-11-25T15:48:26.970Z,8.78
2022-11-25T15:51:02.141Z,8.77
2022-11-25T15:53:33.609Z,8.78
2022-11-25T15:56:01.918Z,8.77
2022-11-25T15:58:29.075Z,8.76
2022-11-25T16:01:06.255Z,8.76
2022-11-25T16:03:35.351Z,8.77
2022-11-25T16:06:02.888Z,8.79
2022-11-25T16:08:37.423Z,8.78
2022-11-25T16:11:16.944Z,8.76
2022-11-25T16:13:45.166Z,8.73
2022-11-25T16:16:31.073Z,8.71
2022-11-25T16:19:04.965Z,8.69
2022-11-25T16:21:40.697Z,8.68
2022-11-25T16:24:25.816Z,8.68
2022-11-25T16:26:57.131Z,8.69
2022-11-25T16:29:31.340Z,8.70
2022-11-25T16:31:59.291Z,8.68
2022-11-25T16:34:28.787Z,8.68
2022-11-25T16:36:56.063Z,8.67
2022-11-25T16:39:22.946Z,8.66
2022-11-25T16:41:57.044Z,8.65
2022-11-25T16:44:26.027Z,8.68
2022-11-25T16:46:53.655Z,8.72
2022-11-25T16:49:22.477Z,8.68
2022-11-25T16:51:53.167Z,8.66
2022-11-25T16:54:21.296Z,8.66
2022-11-25T16:56:53.616Z,8.68
2022-11-25T16:59:25.446Z,8.68
2022-11-25T17:01:52.992Z,8.66
2022-11-25T17:04:19.893Z,8.66
2022-11-25T17:07:09.537Z,8.66
2022-11-25T17:09:33.403Z,8.66
2022-11-25T17:12:00.730Z,8.66
2022-11-25T17:14:34.395Z,8.68
2022-11-25T17:17:03.523Z,8.67
2022-11-25T17:19:30.436Z,8.67
2022-11-25T17:21:57.283Z,8.68
2022-11-25T17:24:25.716Z,8.70
2022-11-25T17:27:00.635Z,8.70
2022-11-25T17:29:35.254Z,8.68
2022-11-25T17:32:03.767Z,8.67
2022-11-25T17:34:33.729Z,8.66
2022-11-25T17:37:12.451Z,8.65
2022-11-25T17:39:39.559Z,8.61
2022-11-25T17:42:06.489Z,8.56
2022-11-25T17:44:33.671Z,8.52
2022-11-25T17:47:00.461Z,8.53
2022-11-25T17:49:27.276Z,8.53
2022-11-25T17:51:54.157Z,8.51
2022-11-25T17:54:20.956Z,8.50
2022-11-25T17:56:52.057Z,8.49
2022-11-25T17:59:28.727Z,8.48
2022-11-25T18:01:56.155Z,8.46
2022-11-25T18:04:42.315Z,8.47
2022-11-25T18:07:10.589Z,8.44
2022-11-25T18:09:37.683Z,8.41
2022-11-25T18:12:10.462Z,8.40
2022-11-25T18:14:40.762Z,8.36
2022-11-25T18:17:08.502Z,8.33
2022-11-25T18:19:35.404Z,8.32
2022-11-25T18:22:17.092Z,8.32
2022-11-25T18:24:44.281Z,8.33
2022-11-25T18:27:23.532Z,8.34
2022-11-25T18:29:51.126Z,8.31
2022-11-25T18:32:17.821Z,8.31
2022-11-25T18:34:44.635Z,8.29
2022-11-25T18:37:12.374Z,8.27
2022-11-25T18:39:39.706Z,8.27
2022-11-25T18:42:10.771Z,8.28
2022-11-25T18:44:41.966Z,8.26
2022-11-25T18:47:11.921Z,8.26
2022-11-25T18:49:38.905Z,8.26
2022-11-25T18:52:05.695Z,8.26
2022-11-25T18:54:32.432Z,8.26
2022-11-25T18:56:59.283Z,8.27
2022-11-25T18:59:32.160Z,8.25
2022-11-25T19:01:59.519Z,8.23
2022-11-25T19:04:26.963Z,8.17
2022-11-25T19:07:03.205Z,8.13
2022-11-25T19:09:30.003Z,8.11
2022-11-25T19:11:56.848Z,8.07
2022-11-25T19:14:30.860Z,8.04
2022-11-25T19:17:03.360Z,8.06
2022-11-25T19:19:30.338Z,8.09
2022-11-25T19:21:58.381Z,8.07
2022-11-25T19:24:25.134Z,8.02
2022-11-25T19:26:54.596Z,7.99
2022-11-25T19:29:41.849Z,7.96
2022-11-25T19:32:26.253Z,7.93
2022-11-25T19:34:57.405Z,7.89
2022-11-25T19:37:24.243Z,7.86
2022-11-25T19:39:52.586Z,7.85
2022-11-25T19:42:19.458Z,7.83
2022-11-25T19:44:46.470Z,7.79
2022-11-25T19:47:16.572Z,7.73
2022-11-25T19:49:43.849Z,7.72
2022-11-25T19:52:19.661Z,7.70
2022-11-25T19:54:46.819Z,7.67
2022-11-25T19:57:20.492Z,7.67
2022-11-25T19:59:47.735Z,7.65
2022-11-25T20:02:19.233Z,7.65
2022-11-25T20:04:49.160Z,7.68
2022-11-25T20:07:18.212Z,7.69
2022-11-25T20:09:45.208Z,7.65
2022-11-25T20:12:21.029Z,7.59
2022-11-25T20:14:48.431Z,7.57
2022-11-25T20:17:23.364Z,7.52
2022-11-25T20:19:52.627Z,7.40
2022-11-25T20:22:25.856Z,7.39
2022-11-25T20:24:54.734Z,7.45
2022-11-25T20:27:26.336Z,7.47
2022-11-25T20:29:53.267Z,7.50
2022-11-25T20:32:27.714Z,7.49
2022-11-25T20:35:00.771Z,7.49
2022-11-25T20:37:29.534Z,7.47
2022-11-25T20:39:58.467Z,7.50
2022-11-25T20:42:31.500Z,7.52
2022-11-25T20:45:12.497Z,7.51
2022-11-25T20:47:39.569Z,7.53
2022-11-25T20:50:09.994Z,7.53
2022-11-25T20:52:38.685Z,7.54
2022-11-25T20:55:16.535Z,7.52
2022-11-25T20:57:44.128Z,7.54
2022-11-25T21:00:16.884Z,7.56
2022-11-25T21:02:43.791Z,7.59
2022-11-25T21:05:10.585Z,7.62
2022-11-25T21:07:37.419Z,7.63
2022-11-25T21:10:16.306Z,7.67
2022-11-25T21:12:42.996Z,7.67
2022-11-25T21:15:14.842Z,7.68
2022-11-25T21:17:41.629Z,7.68
2022-11-25T21:20:09.023Z,7.67
2022-11-25T21:22:41.315Z,7.65
2022-11-25T21:25:13.838Z,7.65
2022-11-25T21:27:41.408Z,7.66
2022-11-25T21:30:18.071Z,7.68
2022-11-25T21:32:45.447Z,7.67
2022-11-25T21:35:13.294Z,7.66
2022-11-25T21:37:42.598Z,7.66
2022-11-25T21:40:24.783Z,7.67
2022-11-25T21:42:51.462Z,7.68
2022-11-25T21:45:18.419Z,7.70
2022-11-25T21:47:45.195Z,7.70
2022-11-25T21:50:17.010Z,7.66
2022-11-25T21:52:43.908Z,7.62
2022-11-25T21:55:15.918Z,7.63
2022-11-25T21:57:42.917Z,7.64
2022-11-25T22:00:22.394Z,7.67
2022-11-25T22:02:49.399Z,7.68
2022-11-25T22:05:18.837Z,7.72
2022-11-25T22:07:45.912Z,7.74
2022-11-25T22:10:17.010Z,7.74
2022-11-25T22:12:46.818Z,7.77
2022-11-25T22:15:20.097Z,7.76
2022-11-25T22:17:47.500Z,7.79
2022-11-25T22:20:23.667Z,7.82
2022-11-25T22:22:50.547Z,7.86
2022-11-25T22:25:17.411Z,7.87
2022-11-25T22:27:44.882Z,7.88
2022-11-25T22:30:19.716Z,7.91
2022-11-25T22:32:49.229Z,7.91
2022-11-25T22:35:20.784Z,7.91
2022-11-25T22:37:53.575Z,7.95
2022-11-25T22:40:23.497Z,7.96
2022-11-25T22:42:52.105Z,7.99
2022-11-25T22:45:29.970Z,7.97
2022-11-25T22:47:58.272Z,7.93
2022-11-25T22:50:29.300Z,7.92
2022-11-25T22:52:57.048Z,7.94
2022-11-25T22:55:26.905Z,7.95
2022-11-25T22:57:56.374Z,7.95
2022-11-25T23:00:30.916Z,7.94
2022-11-25T23:02:59.604Z,7.94
2022-11-25T23:05:33.164Z,7.94
2022-11-25T23:08:16.593Z,7.97
2022-11-25T23:10:43.945Z,7.98
2022-11-25T23:13:11.533Z,7.96
2022-11-25T23:15:43.348Z,7.94
2022-11-25T23:18:15.652Z,7.91
2022-11-25T23:20:42.407Z,7.89
2022-11-25T23:23:15.066Z,7.89
2022-11-25T23:25:42.490Z,7.88
2022-11-25T23:28:09.495Z,7.88
2022-11-25T23:30:36.889Z,7.93
2022-11-25T23:33:10.880Z,7.94
2022-11-25T23:35:38.835Z,7.94
2022-11-25T23:38:11.435Z,7.96
2022-11-25T23:40:38.862Z,7.93
2022-11-25T23:43:13.123Z,7.93
2022-11-25T23:45:47.736Z,7.88
2022-11-25T23:48:14.866Z,7.87
2022-11-25T23:50:41.996Z,7.89
2022-11-25T23:53:20.173Z,7.87
2022-11-25T23:55:46.986Z,7.83
2022-11-25T23:58:19.518Z,7.80
